Time;durP1;ratioP1;P1;durP2;ratioP2;P2;SDS_P1;SDS_P2;PMS_P1;PMS_P2;Temp;Humidity;BMP_temperature;BMP_pressure;BME280_temperature;BME280_humidity;BME280_pressure;Samples;Min_cycle;Max_cycle;Signal;HPM_P1;HPM_P2
2022/10/13 00:00:26;;;;;;;3.93;3.37;;;7.60;97.30;;;;;;5094714;28;20906;-83
2022/10/13 00:02:53;;;;;;;6.57;3.40;;;7.60;97.30;;;;;;5113171;28;20418;-82
2022/10/13 00:05:18;;;;;;;6.33;4.23;;;7.60;97.30;;;;;;5094767;28;20177;-84
2022/10/13 00:07:44;;;;;;;2.20;2.00;;;7.60;97.30;;;;;;5094905;28;20459;-83
2022/10/13 00:10:10;;;;;;;2.90;2.30;;;7.60;97.30;;;;;;5094871;28;20506;-83
2022/10/13 00:12:37;;;;;;;6.13;3.20;;;7.50;97.30;;;;;;5094939;28;20260;-83
2022/10/13 00:15:04;;;;;;;1.60;1.50;;;7.50;97.30;;;;;;5094895;28;20174;-84
2022/10/13 00:17:30;;;;;;;3.67;3.47;;;7.50;97.30;;;;;;5094775;28;20419;-82
2022/10/13 00:19:55;;;;;;;5.00;4.27;;;7.50;97.30;;;;;;5113097;28;20782;-82
2022/10/13 00:22:21;;;;;;;3.20;3.00;;;7.50;97.30;;;;;;5099659;28;20237;-82
2022/10/13 00:24:51;;;;;;;3.63;2.83;;;7.60;97.30;;;;;;5101865;28;20657;-82
2022/10/13 00:27:16;;;;;;;2.20;1.93;;;7.50;97.30;;;;;;5101244;28;20258;-83
2022/10/13 00:29:42;;;;;;;9.77;4.13;;;7.50;97.30;;;;;;5101014;28;20775;-82
2022/10/13 00:32:07;;;;;;;5.27;3.97;;;7.50;97.30;;;;;;5119303;28;20189;-82
2022/10/13 00:34:33;;;;;;;5.20;2.53;;;7.50;97.30;;;;;;5101528;28;20174;-82
2022/10/13 00:36:58;;;;;;;3.63;2.60;;;7.50;97.30;;;;;;5101621;28;20177;-81
2022/10/13 00:39:24;;;;;;;5.90;3.33;;;7.50;97.30;;;;;;5101481;28;20194;-81
2022/10/13 00:41:50;;;;;;;4.80;4.50;;;7.50;97.30;;;;;;5101263;28;20197;-82
2022/10/13 00:44:53;;;;;;;2.13;1.97;;;7.50;97.30;;;;;;5101219;28;20181;-82
2022/10/13 00:47:20;;;;;;;5.70;3.93;;;7.50;97.30;;;;;;5119474;28;20204;-82
2022/10/13 00:49:46;;;;;;;2.23;2.03;;;7.40;97.30;;;;;;5101084;28;20419;-80
2022/10/13 00:52:13;;;;;;;2.50;2.37;;;7.40;97.30;;;;;;5101263;28;20427;-82
2022/10/13 00:54:39;;;;;;;1.60;1.50;;;7.40;97.30;;;;;;5121455;27;20801;-81
2022/10/13 00:57:07;;;;;;;3.43;3.23;;;7.30;97.30;;;;;;5122140;27;20414;-82
2022/10/13 00:59:33;;;;;;;3.53;3.10;;;7.30;97.30;;;;;;5122103;27;20521;-81
2022/10/13 01:02:01;;;;;;;2.63;1.90;;;7.30;97.30;;;;;;5140559;27;20430;-82
2022/10/13 01:04:32;;;;;;;2.53;2.33;;;7.30;97.30;;;;;;5122266;27;20508;-82
2022/10/13 01:06:58;;;;;;;5.53;3.00;;;7.40;97.30;;;;;;5122040;27;20462;-81
2022/10/13 01:09:24;;;;;;;5.97;3.10;;;7.40;97.30;;;;;;5121981;27;20419;-81
2022/10/13 01:12:22;;;;;;;6.37;4.43;;;7.50;97.30;;;;;;5140325;27;20425;-81
2022/10/13 01:15:06;;;;;;;3.20;3.00;;;7.50;97.30;;;;;;5140744;27;20188;-82
2022/10/13 01:17:43;;;;;;;4.33;3.50;;;7.50;97.30;;;;;;5081648;28;20412;-82
2022/10/13 01:20:39;;;;;;;3.80;3.10;;;7.50;97.30;;;;;;5080954;28;20419;-82
2022/10/13 01:23:16;;;;;;;7.53;2.40;;;7.60;97.30;;;;;;5080696;28;20420;-81
2022/10/13 01:26:27;;;;;;;5.70;3.30;;;7.60;97.30;;;;;;5080989;28;20408;-82
2022/10/13 01:29:02;;;;;;;3.70;2.30;;;7.70;97.30;;;;;;5050399;28;20873;-82
2022/10/13 01:31:44;;;;;;;2.70;2.50;;;7.70;97.30;;;;;;5081060;28;20436;-83
2022/10/13 01:34:25;;;;;;;2.93;2.13;;;7.70;97.30;;;;;;5076689;28;20511;-82
2022/10/13 01:37:42;;;;;;;11.57;4.07;;;7.70;97.30;;;;;;5078091;28;20423;-83
2022/10/13 01:40:41;;;;;;;2.60;2.40;;;7.80;97.30;;;;;;5033662;28;20435;-83
2022/10/13 01:43:17;;;;;;;2.60;2.40;;;7.80;97.30;;;;;;5062648;28;20424;-82
2022/10/13 01:46:01;;;;;;;4.30;3.73;;;7.80;97.30;;;;;;5077433;28;20396;-82
2022/10/13 01:48:27;;;;;;;4.20;3.83;;;7.80;97.30;;;;;;5077235;28;20460;-81
2022/10/13 01:50:54;;;;;;;4.07;3.07;;;7.80;97.30;;;;;;5077684;28;20433;-82
2022/10/13 01:53:21;;;;;;;3.33;2.20;;;7.80;97.30;;;;;;5076978;28;20409;-83
2022/10/13 01:55:58;;;;;;;3.00;2.40;;;7.80;97.30;;;;;;5075890;28;21004;-83
2022/10/13 01:58:27;;;;;;;4.70;2.90;;;7.80;97.30;;;;;;5075910;28;20423;-83
2022/10/13 02:01:14;;;;;;;3.00;1.73;;;7.80;97.30;;;;;;5075409;28;20467;-83
2022/10/13 02:04:08;;;;;;;4.83;2.97;;;7.70;97.30;;;;;;5094308;28;20469;-83
2022/10/13 02:06:54;;;;;;;3.30;2.07;;;7.70;97.30;;;;;;5075648;28;20412;-83
2022/10/13 02:09:42;;;;;;;4.40;3.37;;;7.70;97.30;;;;;;5074602;28;20447;-82
2022/10/13 02:12:19;;;;;;;2.67;2.20;;;7.70;97.30;;;;;;5073489;28;20543;-84
2022/10/13 02:14:47;;;;;;;4.40;3.97;;;7.70;97.30;;;;;;5072803;28;20408;-83
2022/10/13 02:17:14;;;;;;;2.00;1.80;;;7.70;97.30;;;;;;5091663;28;20419;-83
2022/10/13 02:19:40;;;;;;;3.27;3.07;;;7.70;97.30;;;;;;5094334;28;20407;-83
2022/10/13 02:22:08;;;;;;;2.07;1.93;;;7.60;97.30;;;;;;5091679;28;20490;-83
2022/10/13 02:24:34;;;;;;;5.17;2.43;;;7.70;97.30;;;;;;5094411;28;20231;-83
2022/10/13 02:27:00;;;;;;;4.23;3.23;;;7.70;97.30;;;;;;5096012;28;20949;-82
2022/10/13 02:29:25;;;;;;;13.83;3.47;;;7.70;97.30;;;;;;5094005;28;20419;-82
2022/10/13 02:31:53;;;;;;;5.17;3.67;;;7.70;97.30;;;;;;5093753;28;20661;-82
2022/10/13 02:34:19;;;;;;;4.83;3.67;;;7.70;97.30;;;;;;5094683;28;20178;-84
2022/10/13 02:36:45;;;;;;;3.20;3.00;;;7.70;97.30;;;;;;5095219;28;20427;-82
2022/10/13 02:39:10;;;;;;;3.20;3.00;;;7.80;97.30;;;;;;5094195;28;20183;-83
2022/10/13 02:41:36;;;;;;;4.40;3.80;;;7.90;97.30;;;;;;5093716;28;20209;-83
2022/10/13 02:44:02;;;;;;;3.03;2.80;;;8.00;97.30;;;;;;5093607;28;20200;-82
2022/10/13 02:46:28;;;;;;;3.40;2.20;;;8.00;97.30;;;;;;5093796;28;21056;-82
2022/10/13 02:48:53;;;;;;;8.47;4.67;;;8.00;97.30;;;;;;5093808;28;20415;-83
2022/10/13 02:51:19;;;;;;;16.67;3.53;;;8.10;97.30;;;;;;5095128;28;20190;-83
2022/10/13 02:53:44;;;;;;;3.63;3.43;;;8.20;97.30;;;;;;5093829;28;20171;-83
2022/10/13 02:56:10;;;;;;;4.23;3.00;;;8.20;97.30;;;;;;5093353;28;20613;-82
2022/10/13 02:58:36;;;;;;;7.70;4.13;;;8.20;97.30;;;;;;5092959;28;20186;-82
2022/10/13 03:01:19;;;;;;;3.97;3.77;;;8.30;97.30;;;;;;5093244;28;20198;-82
2022/10/13 03:03:45;;;;;;;4.90;3.10;;;8.30;97.30;;;;;;5093533;28;20178;-82
2022/10/13 03:06:10;;;;;;;8.27;4.73;;;8.30;97.30;;;;;;5094619;28;20424;-83
2022/10/13 03:08:36;;;;;;;6.43;3.53;;;8.30;97.30;;;;;;5092917;28;20202;-81
2022/10/13 03:11:01;;;;;;;5.77;3.43;;;8.30;97.30;;;;;;5092729;28;20277;-83
2022/10/13 03:13:27;;;;;;;4.07;3.23;;;8.30;97.30;;;;;;5094407;28;20200;-83
2022/10/13 03:15:53;;;;;;;17.60;3.67;;;8.30;97.30;;;;;;5093080;28;20181;-83
2022/10/13 03:18:18;;;;;;;5.13;3.27;;;8.30;97.30;;;;;;5093285;28;20186;-83
2022/10/13 03:20:44;;;;;;;7.70;4.50;;;8.30;97.30;;;;;;5095125;28;20229;-81
2022/10/13 03:23:09;;;;;;;8.93;2.50;;;8.30;97.30;;;;;;5096267;28;20174;-81
2022/10/13 03:25:35;;;;;;;3.60;3.07;;;8.20;97.30;;;;;;5096090;28;20545;-82
2022/10/13 03:28:01;;;;;;;4.60;3.33;;;8.20;97.30;;;;;;5095773;28;20208;-83
2022/10/13 03:30:26;;;;;;;4.90;2.87;;;8.20;97.30;;;;;;5095518;28;20194;-83
2022/10/13 03:32:52;;;;;;;2.33;2.13;;;8.30;97.30;;;;;;5095512;28;20176;-82
2022/10/13 03:35:17;;;;;;;14.70;4.03;;;8.20;97.30;;;;;;5113710;28;20170;-84
2022/10/13 03:37:43;;;;;;;7.60;4.47;;;8.20;97.30;;;;;;5095737;28;20200;-82
2022/10/13 03:40:09;;;;;;;3.73;3.17;;;8.20;97.30;;;;;;5095484;28;20525;-83
2022/10/13 03:42:36;;;;;;;4.87;3.87;;;8.20;97.30;;;;;;5095488;28;20202;-81
2022/10/13 03:45:02;;;;;;;5.17;3.73;;;8.20;97.30;;;;;;5113579;28;20976;-83
2022/10/13 03:47:28;;;;;;;5.63;3.67;;;8.10;97.30;;;;;;5095667;28;20941;-83
2022/10/13 03:49:54;;;;;;;3.87;3.37;;;8.10;97.30;;;;;;5095175;28;20437;-83
2022/10/13 03:52:21;;;;;;;23.53;4.60;;;8.10;97.30;;;;;;5077987;28;20202;-83
2022/10/13 03:54:46;;;;;;;7.80;2.90;;;8.00;97.30;;;;;;5088551;28;20502;-81
2022/10/13 03:57:12;;;;;;;3.53;2.73;;;8.00;97.30;;;;;;5079576;28;20451;-84
2022/10/13 03:59:41;;;;;;;5.80;3.17;;;8.00;97.30;;;;;;5082920;28;20197;-83
2022/10/13 04:02:07;;;;;;;3.67;3.47;;;7.90;97.30;;;;;;5080378;28;20205;-83
2022/10/13 04:04:34;;;;;;;4.53;3.83;;;7.90;97.30;;;;;;5078630;28;20432;-83
2022/10/13 04:06:59;;;;;;;5.03;3.07;;;8.00;97.30;;;;;;5080191;28;20460;-84
2022/10/13 04:09:25;;;;;;;3.13;2.93;;;8.00;97.30;;;;;;5078998;28;20990;-84
2022/10/13 04:11:51;;;;;;;2.87;2.70;;;8.00;97.30;;;;;;5087291;28;20284;-81
2022/10/13 04:14:17;;;;;;;4.90;3.70;;;7.90;97.30;;;;;;5096162;28;20182;-81
2022/10/13 04:16:43;;;;;;;2.10;2.00;;;7.90;97.30;;;;;;5089984;28;20411;-84
2022/10/13 04:19:11;;;;;;;9.10;6.07;;;7.90;97.30;;;;;;5097556;28;20785;-83
2022/10/13 04:21:37;;;;;;;5.57;4.07;;;7.90;97.30;;;;;;5092735;28;20640;-82
2022/10/13 04:24:04;;;;;;;11.33;4.93;;;7.90;97.30;;;;;;5074527;28;20404;-82
2022/10/13 04:26:32;;;;;;;8.70;3.10;;;7.90;97.30;;;;;;5074453;28;20417;-82
2022/10/13 04:28:58;;;;;;;6.20;2.97;;;7.80;97.30;;;;;;5074585;28;20437;-84
2022/10/13 04:31:24;;;;;;;6.70;2.83;;;7.80;97.30;;;;;;5105505;28;20439;-82
2022/10/13 04:33:51;;;;;;;4.63;4.23;;;7.80;97.30;;;;;;5084391;28;20427;-84
2022/10/13 04:36:17;;;;;;;7.90;4.20;;;7.80;97.30;;;;;;5080789;28;20425;-83
2022/10/13 04:38:43;;;;;;;7.30;4.10;;;7.80;97.30;;;;;;5074543;28;20424;-82
2022/10/13 04:41:09;;;;;;;3.13;2.97;;;7.80;97.30;;;;;;5080184;28;20505;-83
2022/10/13 04:43:35;;;;;;;7.03;3.27;;;7.80;97.30;;;;;;5078696;28;20425;-83
2022/10/13 04:46:03;;;;;;;3.53;2.70;;;7.80;97.30;;;;;;5083651;28;20425;-83
2022/10/13 04:48:28;;;;;;;5.03;3.43;;;7.80;97.30;;;;;;5097108;28;20226;-83
2022/10/13 04:51:02;;;;;;;5.13;3.77;;;7.80;97.30;;;;;;5091334;28;20466;-85
2022/10/13 04:53:28;;;;;;;9.37;2.87;;;7.80;97.30;;;;;;5080036;28;20174;-83
2022/10/13 04:55:55;;;;;;;3.27;3.10;;;7.90;97.30;;;;;;5074223;28;20431;-83
2022/10/13 04:58:21;;;;;;;4.50;3.57;;;7.90;97.30;;;;;;5074188;28;20513;-83
2022/10/13 05:00:58;;;;;;;3.53;3.30;;;7.90;97.30;;;;;;5073724;28;20485;-83
2022/10/13 05:03:24;;;;;;;5.37;3.40;;;8.00;97.30;;;;;;5092084;28;20249;-83
2022/10/13 05:05:51;;;;;;;5.70;4.03;;;8.00;97.30;;;;;;5073674;28;20553;-84
2022/10/13 05:08:16;;;;;;;3.63;3.00;;;8.10;97.30;;;;;;5093049;28;20494;-84
2022/10/13 05:10:42;;;;;;;2.47;2.27;;;8.10;97.30;;;;;;5077560;28;20483;-83
2022/10/13 05:13:07;;;;;;;4.10;2.97;;;8.10;97.30;;;;;;5095729;28;20179;-82
2022/10/13 05:15:33;;;;;;;4.27;2.93;;;8.20;97.30;;;;;;5077622;28;20182;-84
2022/10/13 05:17:59;;;;;;;3.47;3.27;;;8.20;97.30;;;;;;5077925;28;20228;-83
2022/10/13 05:20:25;;;;;;;6.27;3.70;;;8.30;97.30;;;;;;5076847;28;20679;-83
2022/10/13 05:22:51;;;;;;;3.47;3.33;;;8.30;97.30;;;;;;5077201;28;20416;-83
2022/10/13 05:25:16;;;;;;;5.60;4.87;;;8.40;97.30;;;;;;5077608;28;20427;-83
2022/10/13 05:27:43;;;;;;;5.10;2.60;;;8.40;97.30;;;;;;5077497;28;20290;-83
2022/10/13 05:30:10;;;;;;;5.40;3.90;;;8.40;97.30;;;;;;5096047;28;20163;-83
2022/10/13 05:32:35;;;;;;;4.63;4.27;;;8.40;97.30;;;;;;5095377;28;20425;-83
2022/10/13 05:35:01;;;;;;;5.33;3.50;;;8.50;97.30;;;;;;5077254;28;20428;-81
2022/10/13 05:37:26;;;;;;;3.13;2.50;;;8.50;97.30;;;;;;5077217;28;20234;-83
2022/10/13 05:39:52;;;;;;;3.47;3.27;;;8.60;97.30;;;;;;5095476;28;20649;-82
2022/10/13 05:42:18;;;;;;;4.57;3.63;;;8.60;97.30;;;;;;5077035;28;20203;-83
2022/10/13 05:44:43;;;;;;;12.03;5.13;;;8.60;97.30;;;;;;5095098;28;20797;-83
2022/10/13 05:47:09;;;;;;;7.43;5.20;;;8.70;97.30;;;;;;5077010;28;20198;-83
2022/10/13 05:49:38;;;;;;;4.73;4.43;;;8.70;97.30;;;;;;5077475;28;20179;-82
2022/10/13 05:52:07;;;;;;;4.20;3.07;;;8.80;97.30;;;;;;5095525;28;20178;-82
2022/10/13 05:54:37;;;;;;;8.33;4.97;;;8.80;97.30;;;;;;5077492;28;20802;-83
2022/10/13 05:57:16;;;;;;;7.50;4.63;;;8.80;97.30;;;;;;5077472;28;20420;-83
2022/10/13 05:59:50;;;;;;;6.93;4.70;;;8.90;97.30;;;;;;5077219;28;20491;-82
2022/10/13 06:02:17;;;;;;;4.60;2.83;;;8.90;97.30;;;;;;5077100;28;20436;-81
2022/10/13 06:04:49;;;;;;;7.03;6.03;;;8.90;97.30;;;;;;5095415;28;20404;-82
2022/10/13 06:07:15;;;;;;;3.97;3.83;;;9.00;97.30;;;;;;5077037;28;20467;-83
2022/10/13 06:09:42;;;;;;;6.30;3.67;;;9.00;97.30;;;;;;5076706;28;20408;-82
2022/10/13 06:12:08;;;;;;;9.10;3.80;;;9.10;97.30;;;;;;5094625;28;20420;-83
2022/10/13 06:14:34;;;;;;;6.30;4.07;;;9.10;97.30;;;;;;5076754;28;20404;-83
2022/10/13 06:16:59;;;;;;;5.47;5.17;;;9.20;97.30;;;;;;5076607;28;20413;-83
2022/10/13 06:19:25;;;;;;;8.23;4.20;;;9.30;97.30;;;;;;5076370;28;20200;-83
2022/10/13 06:21:50;;;;;;;5.90;3.47;;;9.40;97.30;;;;;;5076842;28;20329;-83
2022/10/13 06:24:16;;;;;;;28.80;4.63;;;9.40;97.30;;;;;;5094654;28;20182;-83
2022/10/13 06:26:42;;;;;;;5.30;2.80;;;9.50;97.30;;;;;;5076847;28;20227;-83
2022/10/13 06:29:07;;;;;;;7.87;4.40;;;9.50;97.30;;;;;;5077061;28;20206;-83
2022/10/13 06:31:33;;;;;;;6.63;6.30;;;9.60;97.30;;;;;;5076129;28;20657;-83
2022/10/13 06:33:59;;;;;;;6.53;4.13;;;9.60;97.30;;;;;;5076381;28;20163;-82
2022/10/13 06:36:24;;;;;;;6.77;4.43;;;9.70;97.30;;;;;;5076801;28;20750;-82
2022/10/13 06:38:50;;;;;;;17.27;6.03;;;9.80;97.30;;;;;;5094699;28;20177;-83
2022/10/13 06:41:16;;;;;;;7.57;7.20;;;10.00;97.30;;;;;;5076390;28;20194;-83
2022/10/13 06:43:42;;;;;;;8.63;5.60;;;10.10;97.30;;;;;;5076362;28;20469;-83
2022/10/13 06:46:08;;;;;;;10.93;5.03;;;10.20;97.30;;;;;;5076423;28;20269;-82
2022/10/13 06:48:34;;;;;;;8.30;4.00;;;10.40;97.30;;;;;;5076594;28;20248;-83
2022/10/13 06:51:04;;;;;;;13.50;6.17;;;10.50;97.30;;;;;;5076207;28;20973;-83
2022/10/13 06:53:30;;;;;;;9.80;6.37;;;10.70;97.30;;;;;;5076502;28;20577;-83
2022/10/13 06:55:59;;;;;;;10.07;6.03;;;10.80;97.30;;;;;;5094647;28;20470;-83
2022/10/13 06:58:25;;;;;;;4.37;4.07;;;11.00;97.30;;;;;;5075604;28;20572;-83
2022/10/13 07:00:51;;;;;;;9.27;6.57;;;11.10;97.30;;;;;;5075633;28;20436;-83
2022/10/13 07:03:17;;;;;;;9.60;6.67;;;11.30;97.30;;;;;;5094017;28;20473;-83
2022/10/13 07:05:43;;;;;;;22.13;8.13;;;11.40;97.30;;;;;;5094723;28;20481;-82
2022/10/13 07:08:09;;;;;;;9.97;5.57;;;11.50;97.30;;;;;;5076058;28;20191;-83
2022/10/13 07:10:37;;;;;;;11.87;6.77;;;11.60;97.30;;;;;;5094034;28;20202;-82
2022/10/13 07:13:02;;;;;;;8.13;5.30;;;11.70;97.30;;;;;;5076671;28;20174;-83
2022/10/13 07:15:28;;;;;;;18.10;9.33;;;11.70;97.30;;;;;;5077069;28;20409;-83
2022/10/13 07:17:54;;;;;;;9.13;6.00;;;11.80;97.30;;;;;;5076456;28;20613;-83
2022/10/13 07:20:20;;;;;;;13.17;6.10;;;11.80;97.30;;;;;;5075490;28;20270;-82
2022/10/13 07:22:46;;;;;;;14.27;6.73;;;11.90;97.30;;;;;;5075480;28;20762;-82
2022/10/13 07:25:12;;;;;;;8.23;5.67;;;11.90;97.30;;;;;;5075675;28;20413;-81
2022/10/13 07:27:39;;;;;;;5.20;4.30;;;12.00;97.30;;;;;;5077159;28;20252;-82
2022/10/13 07:30:06;;;;;;;20.30;7.03;;;12.10;97.30;;;;;;5087252;28;20174;-83
2022/10/13 07:32:32;;;;;;;11.47;6.30;;;12.20;97.30;;;;;;5079881;28;20965;-84
2022/10/13 07:34:57;;;;;;;19.93;8.60;;;12.40;97.30;;;;;;5093253;28;20405;-82
2022/10/13 07:37:24;;;;;;;12.03;6.43;;;12.50;97.30;;;;;;5075145;28;20182;-82
2022/10/13 07:39:50;;;;;;;15.00;5.87;;;12.60;97.30;;;;;;5075442;28;20228;-83
2022/10/13 07:42:16;;;;;;;17.60;8.07;;;12.70;97.30;;;;;;5075590;28;20440;-82
2022/10/13 07:44:42;;;;;;;8.43;5.20;;;12.80;97.30;;;;;;5076788;28;20689;-83
2022/10/13 07:47:07;;;;;;;20.20;6.77;;;12.90;97.30;;;;;;5075807;28;20308;-84
2022/10/13 07:49:33;;;;;;;13.10;7.73;;;13.00;97.30;;;;;;5093819;28;20182;-83
2022/10/13 07:51:58;;;;;;;21.47;7.70;;;13.00;97.30;;;;;;5072863;28;20574;-83
2022/10/13 07:54:24;;;;;;;6.03;5.63;;;13.10;97.30;;;;;;5092468;28;20162;-84
2022/10/13 07:56:53;;;;;;;18.97;8.03;;;13.20;97.30;;;;;;5076047;27;20522;-83
2022/10/13 07:59:20;;;;;;;6.47;5.63;;;13.30;97.30;;;;;;5113085;27;20185;-84
2022/10/13 08:01:46;;;;;;;9.63;6.03;;;13.40;97.30;;;;;;5114351;27;20442;-83
2022/10/13 08:04:12;;;;;;;27.93;10.20;;;13.50;97.30;;;;;;5134199;27;20442;-83
2022/10/13 08:06:38;;;;;;;14.20;7.17;;;13.50;97.30;;;;;;5114222;27;20229;-83
2022/10/13 08:09:04;;;;;;;11.90;7.87;;;13.60;97.30;;;;;;5114356;27;20414;-84
2022/10/13 08:11:32;;;;;;;9.17;7.30;;;13.70;97.30;;;;;;5116580;28;20197;-81
2022/10/13 08:14:01;;;;;;;13.83;6.80;;;13.80;97.30;;;;;;5113017;28;20446;-84
2022/10/13 08:16:33;;;;;;;14.60;6.63;;;13.80;97.30;;;;;;5102896;28;20986;-82
2022/10/13 08:19:01;;;;;;;11.30;6.80;;;13.90;97.30;;;;;;5095607;28;20430;-86
2022/10/13 08:21:28;;;;;;;8.20;5.40;;;13.90;97.30;;;;;;5093067;28;20481;-85
2022/10/13 08:23:53;;;;;;;18.43;6.40;;;14.00;97.30;;;;;;5093096;28;20408;-84
2022/10/13 08:26:23;;;;;;;11.47;6.20;;;14.00;97.30;;;;;;5093136;28;20442;-84
2022/10/13 08:28:49;;;;;;;11.13;5.43;;;14.00;97.30;;;;;;5111866;28;20214;-85
2022/10/13 08:31:14;;;;;;;12.90;8.07;;;14.10;97.30;;;;;;5111354;28;20427;-83
2022/10/13 08:33:40;;;;;;;8.43;6.97;;;14.10;97.30;;;;;;5111115;28;20835;-83
2022/10/13 08:36:07;;;;;;;8.13;5.10;;;14.20;97.30;;;;;;5111983;28;20611;-83
2022/10/13 08:38:33;;;;;;;15.40;5.23;;;14.30;97.30;;;;;;5095235;28;20169;-82
2022/10/13 08:40:59;;;;;;;7.60;5.53;;;14.40;97.30;;;;;;5094000;28;20442;-83
2022/10/13 08:43:25;;;;;;;14.53;6.50;;;14.50;97.30;;;;;;5096798;28;20411;-82
2022/10/13 08:45:55;;;;;;;6.57;5.27;;;14.50;97.30;;;;;;5116299;28;20174;-83
2022/10/13 08:48:35;;;;;;;12.40;4.87;;;14.60;97.30;;;;;;5098800;28;20503;-82
2022/10/13 08:51:04;;;;;;;7.20;5.07;;;14.70;97.30;;;;;;5116956;28;20430;-82
2022/10/13 08:53:39;;;;;;;4.63;4.10;;;14.90;97.30;;;;;;5098490;28;20503;-82
2022/10/13 08:56:21;;;;;;;14.13;9.00;;;15.10;97.30;;;;;;5097678;28;20415;-85
2022/10/13 08:58:49;;;;;;;8.33;5.20;;;15.30;97.30;;;;;;5098880;28;20690;-83
2022/10/13 09:01:28;;;;;;;20.80;7.33;;;15.40;97.30;;;;;;5099014;28;20442;-83
2022/10/13 09:04:25;;;;;;;9.67;6.20;;;15.50;97.30;;;;;;5117084;28;20456;-82
2022/10/13 09:07:13;;;;;;;8.10;4.33;;;15.60;97.30;;;;;;5098843;28;20921;-83
2022/10/13 09:09:38;;;;;;;13.90;7.30;;;15.60;97.30;;;;;;5098185;28;20400;-83
2022/10/13 09:12:04;;;;;;;10.73;5.67;;;15.70;97.30;;;;;;5099285;28;20432;-82
2022/10/13 09:14:35;;;;;;;6.93;4.07;;;15.70;97.30;;;;;;5097845;28;20227;-83
2022/10/13 09:17:22;;;;;;;15.20;6.57;;;15.80;97.30;;;;;;5098814;28;20420;-82
2022/10/13 09:20:17;;;;;;;7.87;5.77;;;15.80;97.30;;;;;;5077411;28;20416;-82
2022/10/13 09:22:44;;;;;;;9.10;5.17;;;15.90;97.30;;;;;;5078207;28;20460;-82
2022/10/13 09:25:20;;;;;;;14.93;6.10;;;15.90;97.30;;;;;;5076422;28;20988;-84
2022/10/13 09:27:58;;;;;;;8.30;3.97;;;15.90;97.30;;;;;;5095150;28;20474;-83
2022/10/13 09:30:29;;;;;;;12.57;6.67;;;15.90;97.30;;;;;;5077351;28;20409;-83
2022/10/13 09:33:23;;;;;;;16.17;6.20;;;15.90;97.30;;;;;;5077813;28;20420;-82
2022/10/13 09:35:54;;;;;;;14.70;5.47;;;16.00;97.30;;;;;;5078168;28;20778;-83
2022/10/13 09:38:25;;;;;;;17.03;6.10;;;16.00;97.30;;;;;;5076839;28;20444;-83
2022/10/13 09:41:03;;;;;;;7.17;4.90;;;16.10;97.30;;;;;;5094692;28;20432;-84
2022/10/13 09:43:30;;;;;;;11.00;5.83;;;16.10;97.30;;;;;;5093992;28;20400;-84
2022/10/13 09:45:57;;;;;;;9.07;5.77;;;16.10;97.30;;;;;;5094219;28;20407;-83
2022/10/13 09:48:33;;;;;;;6.53;3.90;;;16.20;97.30;;;;;;5076456;28;20459;-82
2022/10/13 09:50:59;;;;;;;12.00;4.97;;;16.30;97.30;;;;;;5094054;28;20416;-83
2022/10/13 09:53:31;;;;;;;5.83;4.53;;;16.30;97.30;;;;;;5076227;28;20408;-84
2022/10/13 09:56:22;;;;;;;11.27;5.87;;;16.30;97.30;;;;;;5075142;28;20205;-83
2022/10/13 09:59:13;;;;;;;8.67;5.40;;;16.40;97.30;;;;;;5075314;28;20469;-83
2022/10/13 10:01:45;;;;;;;9.63;6.70;;;16.50;97.30;;;;;;5075599;28;20535;-82
2022/10/13 10:04:15;;;;;;;13.43;6.77;;;16.60;97.30;;;;;;5093326;28;20856;-84
2022/10/13 10:06:40;;;;;;;7.37;4.63;;;16.60;97.30;;;;;;5075975;28;20419;-82
2022/10/13 10:09:34;;;;;;;13.60;6.10;;;16.60;97.30;;;;;;5076614;28;20543;-82
2022/10/13 10:12:03;;;;;;;8.60;5.00;;;16.60;97.30;;;;;;5077770;28;20217;-83
2022/10/13 10:14:38;;;;;;;17.13;9.27;;;16.70;97.30;;;;;;5075932;28;20412;-84
2022/10/13 10:17:25;;;;;;;16.13;6.57;;;16.70;97.30;;;;;;5093335;28;20427;-84
2022/10/13 10:20:14;;;;;;;15.67;6.87;;;16.70;97.30;;;;;;5096247;28;20411;-83
2022/10/13 10:22:58;;;;;;;12.37;5.37;;;16.70;97.30;;;;;;5095831;28;20460;-83
2022/10/13 10:25:40;;;;;;;15.50;6.47;;;16.60;97.30;;;;;;5094940;28;20407;-83
2022/10/13 10:28:22;;;;;;;11.60;6.17;;;16.60;97.30;;;;;;5095970;28;20508;-83
2022/10/13 10:30:58;;;;;;;16.37;7.03;;;16.60;97.30;;;;;;5095827;28;20428;-83
2022/10/13 10:33:35;;;;;;;5.67;4.47;;;16.60;97.30;;;;;;5096532;28;20784;-83
2022/10/13 10:36:20;;;;;;;12.57;4.60;;;16.60;97.30;;;;;;5114721;28;20403;-83
2022/10/13 10:39:07;;;;;;;6.20;5.83;;;16.60;97.30;;;;;;5115519;28;20439;-83
2022/10/13 10:41:47;;;;;;;10.23;6.50;;;16.70;97.30;;;;;;5095480;28;20776;-83
2022/10/13 10:44:18;;;;;;;11.90;4.70;;;16.70;97.30;;;;;;5095329;28;20471;-83
2022/10/13 10:46:56;;;;;;;11.97;5.60;;;16.80;97.30;;;;;;5095969;28;20906;-83
2022/10/13 10:49:39;;;;;;;6.53;3.67;;;16.80;97.30;;;;;;5096978;28;20422;-82
2022/10/13 10:52:09;;;;;;;13.73;8.40;;;16.90;97.30;;;;;;5113331;28;20415;-82
2022/10/13 10:54:46;;;;;;;9.77;5.80;;;17.00;97.30;;;;;;5114855;28;20396;-84
2022/10/13 10:57:19;;;;;;;13.27;5.40;;;17.10;97.30;;;;;;5095240;28;20801;-84
2022/10/13 10:59:58;;;;;;;10.43;5.10;;;17.30;97.30;;;;;;5096884;28;20639;-83
2022/10/13 11:03:02;;;;;;;12.10;6.40;;;17.40;97.30;;;;;;5095986;28;20439;-82
2022/10/13 11:05:56;;;;;;;8.53;5.27;;;17.40;97.30;;;;;;5059838;28;20423;-83
2022/10/13 11:08:28;;;;;;;16.07;4.90;;;17.40;97.30;;;;;;5098061;28;20491;-82
2022/10/13 11:11:21;;;;;;;12.47;5.73;;;17.60;97.30;;;;;;5096993;28;20808;-83
2022/10/13 11:13:53;;;;;;;5.40;4.30;;;17.60;97.30;;;;;;5098584;28;20411;-81
2022/10/13 11:16:39;;;;;;;5.13;4.83;;;17.80;97.30;;;;;;5105378;28;20401;-81
2022/10/13 11:19:29;;;;;;;6.60;3.80;;;18.00;97.10;;;;;;5074874;28;20499;-81
2022/10/13 11:21:57;;;;;;;7.70;4.83;;;18.00;96.10;;;;;;5076711;28;20500;-81
2022/10/13 11:24:37;;;;;;;6.77;4.77;;;18.10;95.50;;;;;;5075125;28;20416;-83
2022/10/13 11:27:15;;;;;;;6.80;5.13;;;17.90;95.40;;;;;;5075930;28;20763;-82
2022/10/13 11:29:51;;;;;;;7.33;5.37;;;17.80;95.60;;;;;;5077232;28;20412;-82
2022/10/13 11:35:09;;;;;;;5.17;4.00;;;17.70;96.00;;;;;;5093684;28;20411;-82
2022/10/13 11:37:55;;;;;;;6.20;2.80;;;17.70;96.00;;;;;;5075294;28;20421;-83
2022/10/13 11:40:45;;;;;;;9.70;4.90;;;17.70;96.00;;;;;;5073347;28;20447;-83
2022/10/13 11:43:26;;;;;;;5.63;3.30;;;17.70;95.00;;;;;;5092771;28;20438;-82
2022/10/13 11:46:03;;;;;;;7.97;3.97;;;17.70;94.70;;;;;;5073881;28;20732;-83
2022/10/13 11:48:50;;;;;;;8.87;4.40;;;17.60;94.50;;;;;;5073825;28;20969;-84
2022/10/13 11:51:22;;;;;;;9.90;5.17;;;17.70;94.90;;;;;;5075218;28;20453;-82
2022/10/13 11:54:18;;;;;;;6.03;4.07;;;17.80;94.90;;;;;;5076259;28;20412;-84
2022/10/13 11:56:53;;;;;;;9.03;5.93;;;18.00;94.50;;;;;;5076584;28;20504;-82
2022/10/13 11:59:36;;;;;;;7.90;4.23;;;18.20;94.60;;;;;;5108650;27;20596;-81
2022/10/13 12:02:17;;;;;;;13.30;5.10;;;18.20;94.00;;;;;;5107280;28;20489;-81
2022/10/13 12:04:44;;;;;;;9.03;5.00;;;18.10;94.20;;;;;;5108205;28;20434;-79
2022/10/13 12:07:13;;;;;;;9.07;5.10;;;18.10;94.50;;;;;;5107982;28;20411;-82
2022/10/13 12:09:51;;;;;;;7.77;4.90;;;18.10;95.30;;;;;;5108884;28;20757;-84
2022/10/13 12:12:21;;;;;;;11.23;6.13;;;18.00;94.70;;;;;;5108674;28;20862;-82
2022/10/13 12:14:55;;;;;;;9.13;5.43;;;17.90;94.70;;;;;;5107238;28;20404;-83
2022/10/13 12:17:28;;;;;;;7.77;5.17;;;17.80;94.80;;;;;;5107718;28;20416;-82
2022/10/13 12:19:56;;;;;;;6.60;4.80;;;17.70;94.90;;;;;;5107935;28;20770;-82
2022/10/13 12:22:22;;;;;;;10.70;6.00;;;17.70;95.50;;;;;;5105663;28;20436;-81
2022/10/13 12:24:58;;;;;;;12.13;4.50;;;17.70;95.20;;;;;;5109132;28;20435;-82
2022/10/13 12:27:25;;;;;;;7.30;4.70;;;17.80;94.70;;;;;;5107956;28;20476;-84
2022/10/13 12:29:50;;;;;;;10.60;5.27;;;17.80;95.20;;;;;;5107665;28;20433;-83
2022/10/13 12:32:22;;;;;;;5.20;3.73;;;17.90;94.30;;;;;;5106409;28;20453;-82
2022/10/13 12:34:47;;;;;;;5.73;3.60;;;18.00;93.50;;;;;;5108480;28;20640;-83
2022/10/13 12:37:25;;;;;;;11.43;6.63;;;18.20;92.90;;;;;;5107135;28;20464;-83
2022/10/13 12:39:52;;;;;;;5.47;5.17;;;18.30;93.00;;;;;;5107973;28;20245;-82
2022/10/13 12:42:17;;;;;;;19.57;3.90;;;18.30;93.40;;;;;;5106056;28;20798;-84
2022/10/13 12:44:43;;;;;;;4.50;3.30;;;18.20;94.00;;;;;;5108693;28;20479;-84
2022/10/13 12:47:54;;;;;;;7.63;5.20;;;18.20;93.80;;;;;;5107211;28;20176;-84
2022/10/13 12:50:28;;;;;;;5.77;3.70;;;18.20;92.50;;;;;;5102977;28;20404;-82
2022/10/13 12:53:14;;;;;;;6.20;3.23;;;18.30;92.60;;;;;;5107082;28;20403;-84
2022/10/13 12:55:57;;;;;;;6.97;3.73;;;18.50;92.50;;;;;;5109296;28;20403;-81
2022/10/13 12:58:34;;;;;;;5.97;4.30;;;18.70;91.90;;;;;;5108743;28;20558;-83
2022/10/13 13:01:07;;;;;;;10.87;3.53;;;19.00;92.10;;;;;;5107450;28;20518;-82
2022/10/13 13:03:36;;;;;;;5.63;3.40;;;19.30;91.40;;;;;;5106731;28;20457;-81
2022/10/13 13:06:30;;;;;;;4.37;4.00;;;19.50;91.00;;;;;;5108018;28;20412;-83
2022/10/13 13:09:32;;;;;;;5.60;3.50;;;19.70;90.20;;;;;;5106065;28;20968;-83
2022/10/13 13:12:10;;;;;;;15.57;3.73;;;19.80;89.90;;;;;;5061048;28;20443;-82
2022/10/13 13:14:40;;;;;;;3.50;2.87;;;20.00;90.30;;;;;;5092892;28;20422;-84